sensor_id;sensor_type;location;lat;lon;timestamp;P1;durP1;ratioP1;P2;durP2;ratioP2
35919;SDS011;36160;53.370;-6.196;2023-02-19T00:00:57;8.82;;;2.28;;
35919;SDS011;36160;53.370;-6.196;2023-02-19T00:03:23;9.02;;;2.35;;
35919;SDS011;36160;53.370;-6.196;2023-02-19T00:05:49;9.48;;;2.92;;
35919;SDS011;36160;53.370;-6.196;2023-02-19T00:08:14;6.10;;;1.88;;
35919;SDS011;36160;53.370;-6.196;2023-02-19T00:10:40;8.15;;;3.22;;
35919;SDS011;36160;53.370;-6.196;2023-02-19T00:13:05;10.60;;;2.17;;
35919;SDS011;36160;53.370;-6.196;2023-02-19T00:15:31;11.50;;;2.08;;
35919;SDS011;36160;53.370;-6.196;2023-02-19T00:17:57;14.10;;;2.65;;
35919;SDS011;36160;53.370;-6.196;2023-02-19T00:20:23;6.88;;;1.75;;
35919;SDS011;36160;53.370;-6.196;2023-02-19T00:22:49;14.70;;;2.20;;
35919;SDS011;36160;53.370;-6.196;2023-02-19T00:25:15;12.35;;;2.13;;
35919;SDS011;36160;53.370;-6.196;2023-02-19T00:27:41;8.85;;;1.83;;
35919;SDS011;36160;53.370;-6.196;2023-02-19T00:30:06;7.13;;;2.47;;
35919;SDS011;36160;53.370;-6.196;2023-02-19T00:32:33;13.90;;;3.60;;
35919;SDS011;36160;53.370;-6.196;2023-02-19T00:34:58;8.85;;;1.65;;
35919;SDS011;36160;53.370;-6.196;2023-02-19T00:37:24;5.50;;;1.95;;
35919;SDS011;36160;53.370;-6.196;2023-02-19T00:39:49;7.07;;;1.85;;
35919;SDS011;36160;53.370;-6.196;2023-02-19T00:42:15;8.35;;;1.83;;
35919;SDS011;36160;53.370;-6.196;2023-02-19T00:44:41;10.07;;;1.95;;
35919;SDS011;36160;53.370;-6.196;2023-02-19T00:47:06;10.18;;;2.92;;
35919;SDS011;36160;53.370;-6.196;2023-02-19T00:49:32;11.13;;;2.17;;
35919;SDS011;36160;53.370;-6.196;2023-02-19T00:51:58;5.80;;;1.63;;
35919;SDS011;36160;53.370;-6.196;2023-02-19T00:54:23;5.82;;;1.48;;
35919;SDS011;36160;53.370;-6.196;2023-02-19T00:56:49;4.07;;;1.20;;
35919;SDS011;36160;53.370;-6.196;2023-02-19T00:59:15;11.40;;;1.33;;
35919;SDS011;36160;53.370;-6.196;2023-02-19T01:01:41;8.70;;;1.50;;
35919;SDS011;36160;53.370;-6.196;2023-02-19T01:04:08;12.20;;;3.03;;
35919;SDS011;36160;53.370;-6.196;2023-02-19T01:06:34;11.32;;;2.20;;
35919;SDS011;36160;53.370;-6.196;2023-02-19T01:09:01;11.00;;;1.55;;
35919;SDS011;36160;53.370;-6.196;2023-02-19T01:11:28;4.57;;;1.80;;
35919;SDS011;36160;53.370;-6.196;2023-02-19T01:13:57;8.27;;;1.80;;
35919;SDS011;36160;53.370;-6.196;2023-02-19T01:16:24;9.30;;;1.90;;
35919;SDS011;36160;53.370;-6.196;2023-02-19T01:18:51;8.70;;;1.67;;
35919;SDS011;36160;53.370;-6.196;2023-02-19T01:21:18;5.50;;;1.58;;
35919;SDS011;36160;53.370;-6.196;2023-02-19T01:23:47;5.82;;;1.60;;
35919;SDS011;36160;53.370;-6.196;2023-02-19T01:26:15;6.00;;;1.55;;
35919;SDS011;36160;53.370;-6.196;2023-02-19T01:28:45;5.60;;;1.98;;
35919;SDS011;36160;53.370;-6.196;2023-02-19T01:31:13;6.60;;;1.30;;
35919;SDS011;36160;53.370;-6.196;2023-02-19T01:33:45;4.75;;;1.15;;
35919;SDS011;36160;53.370;-6.196;2023-02-19T01:36:11;5.43;;;2.13;;
35919;SDS011;36160;53.370;-6.196;2023-02-19T01:38:38;10.18;;;2.33;;
35919;SDS011;36160;53.370;-6.196;2023-02-19T01:41:05;14.88;;;3.13;;
35919;SDS011;36160;53.370;-6.196;2023-02-19T01:43:32;10.93;;;2.13;;
35919;SDS011;36160;53.370;-6.196;2023-02-19T01:45:59;20.85;;;4.32;;
35919;SDS011;36160;53.370;-6.196;2023-02-19T01:48:26;12.82;;;2.25;;
35919;SDS011;36160;53.370;-6.196;2023-02-19T01:51:04;11.17;;;2.73;;
35919;SDS011;36160;53.370;-6.196;2023-02-19T01:53:35;14.50;;;2.63;;
35919;SDS011;36160;53.370;-6.196;2023-02-19T01:56:03;9.77;;;2.20;;
35919;SDS011;36160;53.370;-6.196;2023-02-19T01:58:31;13.68;;;2.08;;
35919;SDS011;36160;53.370;-6.196;2023-02-19T02:00:59;11.40;;;2.63;;
35919;SDS011;36160;53.370;-6.196;2023-02-19T02:03:28;9.85;;;2.58;;
35919;SDS011;36160;53.370;-6.196;2023-02-19T02:05:55;12.32;;;2.28;;
35919;SDS011;36160;53.370;-6.196;2023-02-19T02:08:28;8.20;;;2.33;;
35919;SDS011;36160;53.370;-6.196;2023-02-19T02:11:13;6.97;;;2.40;;
35919;SDS011;36160;53.370;-6.196;2023-02-19T02:13:39;5.88;;;1.98;;
35919;SDS011;36160;53.370;-6.196;2023-02-19T02:22:05;15.00;;;1.88;;
35919;SDS011;36160;53.370;-6.196;2023-02-19T02:32:32;11.15;;;2.75;;
35919;SDS011;36160;53.370;-6.196;2023-02-19T02:35:08;10.23;;;2.60;;
35919;SDS011;36160;53.370;-6.196;2023-02-19T02:37:37;14.18;;;2.67;;
35919;SDS011;36160;53.370;-6.196;2023-02-19T02:40:06;7.15;;;1.67;;
35919;SDS011;36160;53.370;-6.196;2023-02-19T02:42:37;5.45;;;1.50;;
35919;SDS011;36160;53.370;-6.196;2023-02-19T02:48:00;5.97;;;2.05;;
35919;SDS011;36160;53.370;-6.196;2023-02-19T02:50:31;11.57;;;1.90;;
35919;SDS011;36160;53.370;-6.196;2023-02-19T02:53:02;16.77;;;2.78;;
35919;SDS011;36160;53.370;-6.196;2023-02-19T02:55:55;9.43;;;1.95;;
35919;SDS011;36160;53.370;-6.196;2023-02-19T02:58:24;9.55;;;3.17;;
35919;SDS011;36160;53.370;-6.196;2023-02-19T03:00:53;11.38;;;1.85;;
35919;SDS011;36160;53.370;-6.196;2023-02-19T03:03:42;16.05;;;1.73;;
35919;SDS011;36160;53.370;-6.196;2023-02-19T03:06:11;7.97;;;1.70;;
35919;SDS011;36160;53.370;-6.196;2023-02-19T03:08:58;9.05;;;2.17;;
35919;SDS011;36160;53.370;-6.196;2023-02-19T03:11:38;9.30;;;1.73;;
35919;SDS011;36160;53.370;-6.196;2023-02-19T03:14:30;13.32;;;1.77;;
35919;SDS011;36160;53.370;-6.196;2023-02-19T03:17:31;14.05;;;3.50;;
35919;SDS011;36160;53.370;-6.196;2023-02-19T03:20:20;6.75;;;1.95;;
35919;SDS011;36160;53.370;-6.196;2023-02-19T03:22:48;8.65;;;1.63;;
35919;SDS011;36160;53.370;-6.196;2023-02-19T03:25:19;11.23;;;1.85;;
35919;SDS011;36160;53.370;-6.196;2023-02-19T03:28:07;17.63;;;2.70;;
35919;SDS011;36160;53.370;-6.196;2023-02-19T03:30:37;12.23;;;2.63;;
35919;SDS011;36160;53.370;-6.196;2023-02-19T03:35:39;7.97;;;1.60;;
35919;SDS011;36160;53.370;-6.196;2023-02-19T03:38:19;10.70;;;2.08;;
35919;SDS011;36160;53.370;-6.196;2023-02-19T03:43:26;11.60;;;2.55;;
35919;SDS011;36160;53.370;-6.196;2023-02-19T03:46:08;12.70;;;2.65;;
35919;SDS011;36160;53.370;-6.196;2023-02-19T03:48:50;15.57;;;2.60;;
35919;SDS011;36160;53.370;-6.196;2023-02-19T03:56:29;13.82;;;2.42;;
35919;SDS011;36160;53.370;-6.196;2023-02-19T04:01:40;14.65;;;2.63;;
35919;SDS011;36160;53.370;-6.196;2023-02-19T04:04:15;17.30;;;3.00;;
35919;SDS011;36160;53.370;-6.196;2023-02-19T04:06:48;6.80;;;1.73;;
35919;SDS011;36160;53.370;-6.196;2023-02-19T04:09:18;9.38;;;2.10;;
35919;SDS011;36160;53.370;-6.196;2023-02-19T04:11:46;14.10;;;2.40;;
35919;SDS011;36160;53.370;-6.196;2023-02-19T04:14:15;20.35;;;2.58;;
35919;SDS011;36160;53.370;-6.196;2023-02-19T04:16:46;8.88;;;1.65;;
35919;SDS011;36160;53.370;-6.196;2023-02-19T04:19:17;15.18;;;1.95;;
35919;SDS011;36160;53.370;-6.196;2023-02-19T04:21:45;14.40;;;2.80;;
35919;SDS011;36160;53.370;-6.196;2023-02-19T04:24:15;8.18;;;2.40;;
35919;SDS011;36160;53.370;-6.196;2023-02-19T04:26:46;17.60;;;3.03;;
35919;SDS011;36160;53.370;-6.196;2023-02-19T04:29:13;14.73;;;2.95;;
35919;SDS011;36160;53.370;-6.196;2023-02-19T04:31:38;16.92;;;2.55;;
35919;SDS011;36160;53.370;-6.196;2023-02-19T04:34:04;13.05;;;2.88;;
35919;SDS011;36160;53.370;-6.196;2023-02-19T04:36:30;21.00;;;3.50;;
35919;SDS011;36160;53.370;-6.196;2023-02-19T04:38:56;11.32;;;2.83;;
35919;SDS011;36160;53.370;-6.196;2023-02-19T04:41:22;14.93;;;2.20;;
35919;SDS011;36160;53.370;-6.196;2023-02-19T04:43:48;21.83;;;4.60;;
35919;SDS011;36160;53.370;-6.196;2023-02-19T04:46:14;14.35;;;2.67;;
35919;SDS011;36160;53.370;-6.196;2023-02-19T04:48:39;9.77;;;2.17;;
35919;SDS011;36160;53.370;-6.196;2023-02-19T04:51:07;11.10;;;2.08;;
35919;SDS011;36160;53.370;-6.196;2023-02-19T04:53:33;15.60;;;1.85;;
35919;SDS011;36160;53.370;-6.196;2023-02-19T04:56:07;15.43;;;3.97;;
35919;SDS011;36160;53.370;-6.196;2023-02-19T04:58:35;10.70;;;2.08;;
35919;SDS011;36160;53.370;-6.196;2023-02-19T05:01:01;18.25;;;2.60;;
35919;SDS011;36160;53.370;-6.196;2023-02-19T05:03:27;5.70;;;2.45;;
35919;SDS011;36160;53.370;-6.196;2023-02-19T05:05:53;10.70;;;2.38;;
35919;SDS011;36160;53.370;-6.196;2023-02-19T05:08:19;10.30;;;2.13;;
35919;SDS011;36160;53.370;-6.196;2023-02-19T05:10:45;10.88;;;1.58;;
35919;SDS011;36160;53.370;-6.196;2023-02-19T05:13:10;6.57;;;1.95;;
35919;SDS011;36160;53.370;-6.196;2023-02-19T05:15:36;8.55;;;1.63;;
35919;SDS011;36160;53.370;-6.196;2023-02-19T05:18:02;10.60;;;2.30;;
35919;SDS011;36160;53.370;-6.196;2023-02-19T05:20:28;5.90;;;1.40;;
35919;SDS011;36160;53.370;-6.196;2023-02-19T05:22:53;11.30;;;1.65;;
35919;SDS011;36160;53.370;-6.196;2023-02-19T05:25:19;13.80;;;2.72;;
35919;SDS011;36160;53.370;-6.196;2023-02-19T05:27:45;10.63;;;1.95;;
35919;SDS011;36160;53.370;-6.196;2023-02-19T05:30:11;9.88;;;2.40;;
35919;SDS011;36160;53.370;-6.196;2023-02-19T05:32:36;14.35;;;2.20;;
35919;SDS011;36160;53.370;-6.196;2023-02-19T05:35:02;12.10;;;2.50;;
35919;SDS011;36160;53.370;-6.196;2023-02-19T05:37:28;18.20;;;5.03;;
35919;SDS011;36160;53.370;-6.196;2023-02-19T05:39:54;12.75;;;2.28;;
35919;SDS011;36160;53.370;-6.196;2023-02-19T05:42:19;11.65;;;3.15;;
35919;SDS011;36160;53.370;-6.196;2023-02-19T05:44:45;22.60;;;3.20;;
35919;SDS011;36160;53.370;-6.196;2023-02-19T05:47:11;14.93;;;2.67;;
35919;SDS011;36160;53.370;-6.196;2023-02-19T05:49:36;11.85;;;2.00;;
35919;SDS011;36160;53.370;-6.196;2023-02-19T05:52:02;15.05;;;3.15;;
35919;SDS011;36160;53.370;-6.196;2023-02-19T05:54:29;23.65;;;3.08;;
35919;SDS011;36160;53.370;-6.196;2023-02-19T05:56:55;17.48;;;2.13;;
35919;SDS011;36160;53.370;-6.196;2023-02-19T05:59:22;9.18;;;1.92;;
35919;SDS011;36160;53.370;-6.196;2023-02-19T06:01:49;11.18;;;2.65;;
35919;SDS011;36160;53.370;-6.196;2023-02-19T06:04:16;8.48;;;2.00;;
35919;SDS011;36160;53.370;-6.196;2023-02-19T06:06:44;9.73;;;1.90;;
35919;SDS011;36160;53.370;-6.196;2023-02-19T06:09:10;20.00;;;2.03;;
35919;SDS011;36160;53.370;-6.196;2023-02-19T06:11:36;12.93;;;2.45;;
35919;SDS011;36160;53.370;-6.196;2023-02-19T06:14:02;7.55;;;1.80;;
35919;SDS011;36160;53.370;-6.196;2023-02-19T06:16:28;10.77;;;1.67;;
35919;SDS011;36160;53.370;-6.196;2023-02-19T06:18:56;8.43;;;2.28;;
35919;SDS011;36160;53.370;-6.196;2023-02-19T06:21:22;6.13;;;1.40;;
35919;SDS011;36160;53.370;-6.196;2023-02-19T06:23:47;6.55;;;1.92;;
35919;SDS011;36160;53.370;-6.196;2023-02-19T06:26:18;7.90;;;2.38;;
35919;SDS011;36160;53.370;-6.196;2023-02-19T06:28:48;7.43;;;1.88;;
35919;SDS011;36160;53.370;-6.196;2023-02-19T06:31:14;6.75;;;2.42;;
35919;SDS011;36160;53.370;-6.196;2023-02-19T06:33:41;6.63;;;2.25;;
35919;SDS011;36160;53.370;-6.196;2023-02-19T06:36:08;9.05;;;2.80;;
35919;SDS011;36160;53.370;-6.196;2023-02-19T06:38:39;16.08;;;5.28;;
35919;SDS011;36160;53.370;-6.196;2023-02-19T06:41:05;5.88;;;2.40;;
35919;SDS011;36160;53.370;-6.196;2023-02-19T06:43:32;6.88;;;2.78;;
35919;SDS011;36160;53.370;-6.196;2023-02-19T06:45:59;4.50;;;2.10;;
35919;SDS011;36160;53.370;-6.196;2023-02-19T06:48:26;3.92;;;1.60;;
35919;SDS011;36160;53.370;-6.196;2023-02-19T06:50:52;7.05;;;1.80;;
35919;SDS011;36160;53.370;-6.196;2023-02-19T06:53:19;5.43;;;1.20;;
35919;SDS011;36160;53.370;-6.196;2023-02-19T06:55:54;3.85;;;1.40;;
35919;SDS011;36160;53.370;-6.196;2023-02-19T06:58:24;5.78;;;1.20;;
35919;SDS011;36160;53.370;-6.196;2023-02-19T07:00:50;2.85;;;1.00;;
35919;SDS011;36160;53.370;-6.196;2023-02-19T07:03:17;4.22;;;1.05;;
35919;SDS011;36160;53.370;-6.196;2023-02-19T07:05:42;5.32;;;1.25;;
35919;SDS011;36160;53.370;-6.196;2023-02-19T07:08:08;4.22;;;1.10;;
35919;SDS011;36160;53.370;-6.196;2023-02-19T07:10:34;4.03;;;1.33;;
35919;SDS011;36160;53.370;-6.196;2023-02-19T07:13:00;4.25;;;0.80;;
35919;SDS011;36160;53.370;-6.196;2023-02-19T07:15:26;0.88;;;0.75;;
35919;SDS011;36160;53.370;-6.196;2023-02-19T07:17:51;1.63;;;0.82;;
35919;SDS011;36160;53.370;-6.196;2023-02-19T07:20:17;3.95;;;1.13;;
35919;SDS011;36160;53.370;-6.196;2023-02-19T07:22:43;3.50;;;0.82;;
35919;SDS011;36160;53.370;-6.196;2023-02-19T07:25:08;2.33;;;0.80;;
35919;SDS011;36160;53.370;-6.196;2023-02-19T07:27:34;3.33;;;0.90;;
35919;SDS011;36160;53.370;-6.196;2023-02-19T07:30:01;2.63;;;0.82;;
35919;SDS011;36160;53.370;-6.196;2023-02-19T07:32:27;3.72;;;0.90;;
35919;SDS011;36160;53.370;-6.196;2023-02-19T07:34:53;4.32;;;0.85;;
35919;SDS011;36160;53.370;-6.196;2023-02-19T07:37:18;1.42;;;0.85;;
35919;SDS011;36160;53.370;-6.196;2023-02-19T07:39:44;1.70;;;0.77;;
35919;SDS011;36160;53.370;-6.196;2023-02-19T07:42:10;3.45;;;1.08;;
35919;SDS011;36160;53.370;-6.196;2023-02-19T07:44:35;2.72;;;1.52;;
35919;SDS011;36160;53.370;-6.196;2023-02-19T07:47:01;3.17;;;0.70;;
35919;SDS011;36160;53.370;-6.196;2023-02-19T07:49:27;1.88;;;0.70;;
35919;SDS011;36160;53.370;-6.196;2023-02-19T07:51:52;1.08;;;0.68;;
35919;SDS011;36160;53.370;-6.196;2023-02-19T07:54:18;3.60;;;0.73;;
35919;SDS011;36160;53.370;-6.196;2023-02-19T07:56:44;1.55;;;0.70;;
35919;SDS011;36160;53.370;-6.196;2023-02-19T07:59:09;3.08;;;0.73;;
35919;SDS011;36160;53.370;-6.196;2023-02-19T08:01:35;1.30;;;0.80;;
35919;SDS011;36160;53.370;-6.196;2023-02-19T08:04:20;2.13;;;0.70;;
35919;SDS011;36160;53.370;-6.196;2023-02-19T08:06:45;2.65;;;0.70;;
35919;SDS011;36160;53.370;-6.196;2023-02-19T08:09:11;0.70;;;0.70;;
35919;SDS011;36160;53.370;-6.196;2023-02-19T08:11:37;2.90;;;0.80;;
35919;SDS011;36160;53.370;-6.196;2023-02-19T08:14:24;0.90;;;0.70;;
35919;SDS011;36160;53.370;-6.196;2023-02-19T08:16:51;1.45;;;0.85;;
35919;SDS011;36160;53.370;-6.196;2023-02-19T08:19:17;2.15;;;0.80;;
35919;SDS011;36160;53.370;-6.196;2023-02-19T08:21:43;4.10;;;1.77;;
35919;SDS011;36160;53.370;-6.196;2023-02-19T08:24:09;3.05;;;0.70;;
35919;SDS011;36160;53.370;-6.196;2023-02-19T08:26:35;2.58;;;0.70;;
35919;SDS011;36160;53.370;-6.196;2023-02-19T08:29:01;1.77;;;0.70;;
35919;SDS011;36160;53.370;-6.196;2023-02-19T08:31:27;2.25;;;1.55;;
35919;SDS011;36160;53.370;-6.196;2023-02-19T08:33:53;1.45;;;0.70;;
35919;SDS011;36160;53.370;-6.196;2023-02-19T08:36:19;1.25;;;0.93;;
35919;SDS011;36160;53.370;-6.196;2023-02-19T08:38:44;1.00;;;0.88;;
35919;SDS011;36160;53.370;-6.196;2023-02-19T08:41:11;1.50;;;1.13;;
35919;SDS011;36160;53.370;-6.196;2023-02-19T08:43:38;2.38;;;1.10;;
35919;SDS011;36160;53.370;-6.196;2023-02-19T08:46:05;1.10;;;0.70;;
35919;SDS011;36160;53.370;-6.196;2023-02-19T08:48:32;7.78;;;1.08;;
35919;SDS011;36160;53.370;-6.196;2023-02-19T08:50:59;3.45;;;0.88;;
35919;SDS011;36160;53.370;-6.196;2023-02-19T08:53:28;3.63;;;0.70;;
35919;SDS011;36160;53.370;-6.196;2023-02-19T08:55:55;1.42;;;0.80;;
35919;SDS011;36160;53.370;-6.196;2023-02-19T08:58:21;0.70;;;0.60;;
35919;SDS011;36160;53.370;-6.196;2023-02-19T09:00:47;1.52;;;1.00;;
35919;SDS011;36160;53.370;-6.196;2023-02-19T09:03:13;1.20;;;0.60;;
35919;SDS011;36160;53.370;-6.196;2023-02-19T09:05:39;1.17;;;0.60;;
35919;SDS011;36160;53.370;-6.196;2023-02-19T09:08:05;2.10;;;1.15;;
35919;SDS011;36160;53.370;-6.196;2023-02-19T09:10:31;1.52;;;0.70;;
35919;SDS011;36160;53.370;-6.196;2023-02-19T09:12:56;0.60;;;0.60;;
35919;SDS011;36160;53.370;-6.196;2023-02-19T09:15:22;2.83;;;1.08;;
35919;SDS011;36160;53.370;-6.196;2023-02-19T09:17:51;0.70;;;0.63;;
35919;SDS011;36160;53.370;-6.196;2023-02-19T09:20:17;0.55;;;0.55;;
35919;SDS011;36160;53.370;-6.196;2023-02-19T09:22:43;1.77;;;0.75;;
35919;SDS011;36160;53.370;-6.196;2023-02-19T09:25:09;3.03;;;0.70;;
35919;SDS011;36160;53.370;-6.196;2023-02-19T09:27:34;3.47;;;1.27;;
35919;SDS011;36160;53.370;-6.196;2023-02-19T09:30:00;1.45;;;0.85;;
35919;SDS011;36160;53.370;-6.196;2023-02-19T09:37:27;0.60;;;0.55;;
35919;SDS011;36160;53.370;-6.196;2023-02-19T09:39:53;1.40;;;0.80;;
35919;SDS011;36160;53.370;-6.196;2023-02-19T09:42:20;2.90;;;0.80;;
35919;SDS011;36160;53.370;-6.196;2023-02-19T09:44:49;1.05;;;0.70;;
35919;SDS011;36160;53.370;-6.196;2023-02-19T09:47:19;0.70;;;0.60;;
35919;SDS011;36160;53.370;-6.196;2023-02-19T09:49:51;0.50;;;0.50;;
35919;SDS011;36160;53.370;-6.196;2023-02-19T09:53:03;2.35;;;0.60;;
35919;SDS011;36160;53.370;-6.196;2023-02-19T09:55:28;0.85;;;0.70;;
35919;SDS011;36160;53.370;-6.196;2023-02-19T09:57:58;0.90;;;0.80;;
35919;SDS011;36160;53.370;-6.196;2023-02-19T10:00:26;3.55;;;0.95;;
35919;SDS011;36160;53.370;-6.196;2023-02-19T10:03:05;1.33;;;0.70;;
35919;SDS011;36160;53.370;-6.196;2023-02-19T10:05:37;1.15;;;1.08;;
35919;SDS011;36160;53.370;-6.196;2023-02-19T10:08:06;1.77;;;0.85;;
35919;SDS011;36160;53.370;-6.196;2023-02-19T10:10:37;2.40;;;0.85;;
35919;SDS011;36160;53.370;-6.196;2023-02-19T10:13:20;1.63;;;0.60;;
35919;SDS011;36160;53.370;-6.196;2023-02-19T10:15:51;0.93;;;0.55;;
35919;SDS011;36160;53.370;-6.196;2023-02-19T10:18:22;2.72;;;0.65;;
35919;SDS011;36160;53.370;-6.196;2023-02-19T10:20:52;0.90;;;0.90;;
35919;SDS011;36160;53.370;-6.196;2023-02-19T10:23:18;2.58;;;1.00;;
35919;SDS011;36160;53.370;-6.196;2023-02-19T10:25:48;1.90;;;0.98;;
35919;SDS011;36160;53.370;-6.196;2023-02-19T10:28:21;1.80;;;0.82;;
35919;SDS011;36160;53.370;-6.196;2023-02-19T10:30:51;1.10;;;0.88;;
35919;SDS011;36160;53.370;-6.196;2023-02-19T10:33:19;1.17;;;0.80;;
35919;SDS011;36160;53.370;-6.196;2023-02-19T10:35:55;2.55;;;1.13;;
35919;SDS011;36160;53.370;-6.196;2023-02-19T10:38:30;2.38;;;0.82;;
35919;SDS011;36160;53.370;-6.196;2023-02-19T10:41:03;1.90;;;1.00;;
35919;SDS011;36160;53.370;-6.196;2023-02-19T10:43:32;6.05;;;1.10;;
35919;SDS011;36160;53.370;-6.196;2023-02-19T10:46:23;4.60;;;1.00;;
35919;SDS011;36160;53.370;-6.196;2023-02-19T10:48:52;3.08;;;0.95;;
35919;SDS011;36160;53.370;-6.196;2023-02-19T10:51:18;1.70;;;0.93;;
35919;SDS011;36160;53.370;-6.196;2023-02-19T10:53:47;2.15;;;1.38;;
35919;SDS011;36160;53.370;-6.196;2023-02-19T10:56:15;2.45;;;1.30;;
35919;SDS011;36160;53.370;-6.196;2023-02-19T10:58:48;6.30;;;1.50;;
35919;SDS011;36160;53.370;-6.196;2023-02-19T11:01:21;5.47;;;1.30;;
35919;SDS011;36160;53.370;-6.196;2023-02-19T11:04:13;4.40;;;1.75;;
35919;SDS011;36160;53.370;-6.196;2023-02-19T11:06:38;5.72;;;1.48;;
35919;SDS011;36160;53.370;-6.196;2023-02-19T11:09:04;6.53;;;1.75;;
35919;SDS011;36160;53.370;-6.196;2023-02-19T11:14:15;5.32;;;1.38;;
35919;SDS011;36160;53.370;-6.196;2023-02-19T11:16:57;3.50;;;1.05;;
35919;SDS011;36160;53.370;-6.196;2023-02-19T11:21:53;2.78;;;0.90;;
35919;SDS011;36160;53.370;-6.196;2023-02-19T11:24:32;3.20;;;1.58;;
35919;SDS011;36160;53.370;-6.196;2023-02-19T11:27:04;4.22;;;1.10;;
35919;SDS011;36160;53.370;-6.196;2023-02-19T11:29:39;4.95;;;1.25;;
35919;SDS011;36160;53.370;-6.196;2023-02-19T11:32:21;6.30;;;1.30;;
35919;SDS011;36160;53.370;-6.196;2023-02-19T11:34:49;3.28;;;1.10;;
35919;SDS011;36160;53.370;-6.196;2023-02-19T11:37:17;4.00;;;1.10;;
35919;SDS011;36160;53.370;-6.196;2023-02-19T11:39:48;4.53;;;1.35;;
35919;SDS011;36160;53.370;-6.196;2023-02-19T11:47:38;5.57;;;1.70;;
35919;SDS011;36160;53.370;-6.196;2023-02-19T12:00:58;7.57;;;1.10;;
35919;SDS011;36160;53.370;-6.196;2023-02-19T12:11:43;4.30;;;1.48;;
35919;SDS011;36160;53.370;-6.196;2023-02-19T12:17:21;3.95;;;1.35;;
35919;SDS011;36160;53.370;-6.196;2023-02-19T12:25:41;6.07;;;1.30;;
35919;SDS011;36160;53.370;-6.196;2023-02-19T12:44:41;2.40;;;1.20;;
35919;SDS011;36160;53.370;-6.196;2023-02-19T12:47:08;4.93;;;2.05;;
35919;SDS011;36160;53.370;-6.196;2023-02-19T12:49:42;4.25;;;1.10;;
35919;SDS011;36160;53.370;-6.196;2023-02-19T12:52:30;2.75;;;1.25;;
35919;SDS011;36160;53.370;-6.196;2023-02-19T12:55:12;9.27;;;1.45;;
35919;SDS011;36160;53.370;-6.196;2023-02-19T12:57:46;1.45;;;0.90;;
35919;SDS011;36160;53.370;-6.196;2023-02-19T13:03:21;1.63;;;0.80;;
35919;SDS011;36160;53.370;-6.196;2023-02-19T13:05:54;1.70;;;0.70;;
35919;SDS011;36160;53.370;-6.196;2023-02-19T13:11:00;2.08;;;1.02;;
35919;SDS011;36160;53.370;-6.196;2023-02-19T13:13:39;5.65;;;1.58;;
35919;SDS011;36160;53.370;-6.196;2023-02-19T13:16:13;3.35;;;1.02;;
35919;SDS011;36160;53.370;-6.196;2023-02-19T13:18:43;3.80;;;1.02;;
35919;SDS011;36160;53.370;-6.196;2023-02-19T13:21:13;4.95;;;1.65;;
35919;SDS011;36160;53.370;-6.196;2023-02-19T13:24:01;1.42;;;0.82;;
35919;SDS011;36160;53.370;-6.196;2023-02-19T13:29:16;1.30;;;0.95;;
35919;SDS011;36160;53.370;-6.196;2023-02-19T13:31:51;1.73;;;1.05;;
35919;SDS011;36160;53.370;-6.196;2023-02-19T13:37:36;2.40;;;0.82;;
35919;SDS011;36160;53.370;-6.196;2023-02-19T13:40:05;1.75;;;1.00;;
35919;SDS011;36160;53.370;-6.196;2023-02-19T13:42:54;1.23;;;1.02;;
35919;SDS011;36160;53.370;-6.196;2023-02-19T13:45:33;3.72;;;1.00;;
35919;SDS011;36160;53.370;-6.196;2023-02-19T14:05:15;3.03;;;1.02;;
35919;SDS011;36160;53.370;-6.196;2023-02-19T14:14:37;3.10;;;1.00;;
35919;SDS011;36160;53.370;-6.196;2023-02-19T14:19:59;3.03;;;1.27;;
35919;SDS011;36160;53.370;-6.196;2023-02-19T14:33:55;4.57;;;1.00;;
35919;SDS011;36160;53.370;-6.196;2023-02-19T14:36:45;2.33;;;0.98;;
35919;SDS011;36160;53.370;-6.196;2023-02-19T14:39:24;2.70;;;1.63;;
35919;SDS011;36160;53.370;-6.196;2023-02-19T14:41:57;4.80;;;1.20;;
35919;SDS011;36160;53.370;-6.196;2023-02-19T14:44:27;1.48;;;0.95;;
35919;SDS011;36160;53.370;-6.196;2023-02-19T14:49:35;6.97;;;1.30;;
35919;SDS011;36160;53.370;-6.196;2023-02-19T14:52:04;3.17;;;1.00;;
35919;SDS011;36160;53.370;-6.196;2023-02-19T14:57:28;4.65;;;1.98;;
35919;SDS011;36160;53.370;-6.196;2023-02-19T14:59:59;2.03;;;0.80;;
35919;SDS011;36160;53.370;-6.196;2023-02-19T15:02:28;4.70;;;1.10;;
35919;SDS011;36160;53.370;-6.196;2023-02-19T15:04:55;2.15;;;0.70;;
35919;SDS011;36160;53.370;-6.196;2023-02-19T15:07:23;2.13;;;0.70;;
35919;SDS011;36160;53.370;-6.196;2023-02-19T15:09:56;3.97;;;1.25;;
35919;SDS011;36160;53.370;-6.196;2023-02-19T15:12:33;1.55;;;1.10;;
35919;SDS011;36160;53.370;-6.196;2023-02-19T15:15:29;3.45;;;1.20;;
35919;SDS011;36160;53.370;-6.196;2023-02-19T15:17:59;1.23;;;0.73;;
35919;SDS011;36160;53.370;-6.196;2023-02-19T15:20:33;6.35;;;1.60;;
35919;SDS011;36160;53.370;-6.196;2023-02-19T15:23:01;2.78;;;0.93;;
35919;SDS011;36160;53.370;-6.196;2023-02-19T15:25:37;2.72;;;1.00;;
35919;SDS011;36160;53.370;-6.196;2023-02-19T15:30:48;1.52;;;0.80;;
35919;SDS011;36160;53.370;-6.196;2023-02-19T15:33:15;2.53;;;0.95;;
35919;SDS011;36160;53.370;-6.196;2023-02-19T15:35:50;2.00;;;1.00;;
35919;SDS011;36160;53.370;-6.196;2023-02-19T15:38:17;3.78;;;1.10;;
35919;SDS011;36160;53.370;-6.196;2023-02-19T15:40:47;1.73;;;0.93;;
35919;SDS011;36160;53.370;-6.196;2023-02-19T15:43:37;3.10;;;1.05;;
35919;SDS011;36160;53.370;-6.196;2023-02-19T15:46:08;4.88;;;1.88;;
35919;SDS011;36160;53.370;-6.196;2023-02-19T15:48:45;3.50;;;1.40;;
35919;SDS011;36160;53.370;-6.196;2023-02-19T15:51:17;2.08;;;1.30;;
35919;SDS011;36160;53.370;-6.196;2023-02-19T15:53:51;1.80;;;1.10;;
35919;SDS011;36160;53.370;-6.196;2023-02-19T15:56:25;4.03;;;1.20;;
35919;SDS011;36160;53.370;-6.196;2023-02-19T15:59:00;2.28;;;1.20;;
35919;SDS011;36160;53.370;-6.196;2023-02-19T16:01:29;1.95;;;0.90;;
35919;SDS011;36160;53.370;-6.196;2023-02-19T16:04:00;2.47;;;1.05;;
35919;SDS011;36160;53.370;-6.196;2023-02-19T16:06:26;3.78;;;1.10;;
35919;SDS011;36160;53.370;-6.196;2023-02-19T16:09:04;4.35;;;1.33;;
35919;SDS011;36160;53.370;-6.196;2023-02-19T16:14:15;2.85;;;0.90;;
35919;SDS011;36160;53.370;-6.196;2023-02-19T16:16:42;2.33;;;0.93;;
35919;SDS011;36160;53.370;-6.196;2023-02-19T16:19:10;2.38;;;1.02;;
35919;SDS011;36160;53.370;-6.196;2023-02-19T16:21:36;2.75;;;1.13;;
35919;SDS011;36160;53.370;-6.196;2023-02-19T16:24:04;7.30;;;1.67;;
35919;SDS011;36160;53.370;-6.196;2023-02-19T16:26:40;3.20;;;1.40;;
35919;SDS011;36160;53.370;-6.196;2023-02-19T16:29:49;3.83;;;1.55;;
35919;SDS011;36160;53.370;-6.196;2023-02-19T16:31:58;7.07;;;3.42;;
35919;SDS011;36160;53.370;-6.196;2023-02-19T16:45:28;5.47;;;2.08;;
35919;SDS011;36160;53.370;-6.196;2023-02-19T16:47:53;5.03;;;1.77;;
35919;SDS011;36160;53.370;-6.196;2023-02-19T16:50:20;3.42;;;1.88;;
35919;SDS011;36160;53.370;-6.196;2023-02-19T16:52:54;5.93;;;1.73;;
35919;SDS011;36160;53.370;-6.196;2023-02-19T16:55:24;2.80;;;1.77;;
35919;SDS011;36160;53.370;-6.196;2023-02-19T16:57:50;2.05;;;1.52;;
35919;SDS011;36160;53.370;-6.196;2023-02-19T17:00:21;5.20;;;2.58;;
35919;SDS011;36160;53.370;-6.196;2023-02-19T17:02:48;4.80;;;2.58;;
35919;SDS011;36160;53.370;-6.196;2023-02-19T17:05:16;3.42;;;1.55;;
35919;SDS011;36160;53.370;-6.196;2023-02-19T17:07:43;5.95;;;2.20;;
35919;SDS011;36160;53.370;-6.196;2023-02-19T17:10:09;6.70;;;2.60;;
35919;SDS011;36160;53.370;-6.196;2023-02-19T17:12:37;5.03;;;2.83;;
35919;SDS011;36160;53.370;-6.196;2023-02-19T17:15:03;6.30;;;2.35;;
35919;SDS011;36160;53.370;-6.196;2023-02-19T17:17:29;3.90;;;2.05;;
35919;SDS011;36160;53.370;-6.196;2023-02-19T17:19:55;3.72;;;2.33;;
35919;SDS011;36160;53.370;-6.196;2023-02-19T17:22:20;5.45;;;2.47;;
35919;SDS011;36160;53.370;-6.196;2023-02-19T17:24:46;4.15;;;1.85;;
35919;SDS011;36160;53.370;-6.196;2023-02-19T17:27:12;4.93;;;1.90;;